Time;durP1;ratioP1;P1;durP2;ratioP2;P2;SDS_P1;SDS_P2;PMS_P1;PMS_P2;Temp;Humidity;BMP_temperature;BMP_pressure;BME280_temperature;BME280_humidity;BME280_pressure;Samples;Min_cycle;Max_cycle;Signal;HPM_P1;HPM_P2
2024/02/04 00:01:19;;;;;;;21.02;12.68;;;;;;;2.77;100.00;99279.34;5057261;28;20854;-72
2024/02/04 00:03:45;;;;;;;17.98;12.90;;;;;;;2.85;100.00;99306.88;5062480;28;20107;-73
2024/02/04 00:06:11;;;;;;;19.63;14.35;;;;;;;3.26;100.00;99448.78;5059536;28;20102;-72
2024/02/04 00:08:36;;;;;;;21.73;14.63;;;;;;;3.09;100.00;99498.28;5061717;28;20094;-73
2024/02/04 00:11:04;;;;;;;27.38;15.00;;;;;;;3.12;100.00;99397.00;5069432;28;20084;-73
2024/02/04 00:13:30;;;;;;;20.75;13.10;;;;;;;3.30;100.00;99372.59;5062209;28;20033;-73
2024/02/04 00:15:58;;;;;;;17.52;11.38;;;;;;;2.76;100.00;99357.94;5057967;28;20048;-73
2024/02/04 00:18:24;;;;;;;19.42;12.63;;;;;;;2.67;100.00;99314.53;5058060;28;20105;-73
2024/02/04 00:20:50;;;;;;;22.15;13.75;;;;;;;3.08;100.00;99366.06;5060864;28;20541;-73
2024/02/04 00:23:16;;;;;;;20.17;12.02;;;;;;;3.08;100.00;99328.44;5057900;28;20119;-73
2024/02/04 00:25:41;;;;;;;23.75;12.07;;;;;;;2.87;100.00;99313.56;5058017;28;20058;-73
2024/02/04 00:28:07;;;;;;;17.48;11.05;;;;;;;3.40;100.00;99370.81;5052909;28;20040;-72
2024/02/04 00:30:33;;;;;;;17.00;10.73;;;;;;;3.44;100.00;99393.41;5055470;28;20097;-72
2024/02/04 00:33:02;;;;;;;20.83;11.32;;;;;;;3.48;100.00;99394.19;5060576;28;20460;-73
2024/02/04 00:35:28;;;;;;;17.65;10.82;;;;;;;2.83;100.00;99296.00;5060753;28;20483;-73
2024/02/04 00:37:54;;;;;;;15.43;10.23;;;;;;;2.67;100.00;99241.78;5061828;28;20494;-72
2024/02/04 00:40:19;;;;;;;20.17;10.32;;;;;;;3.27;100.00;99377.63;5056634;28;20032;-73
2024/02/04 00:42:45;;;;;;;18.48;10.60;;;;;;;2.40;100.00;99285.44;5061122;28;20040;-73
2024/02/04 00:45:11;;;;;;;17.15;9.90;;;;;;;3.35;100.00;99388.44;5054346;28;20040;-73
2024/02/04 00:47:36;;;;;;;17.13;10.90;;;;;;;2.80;100.00;99276.78;5060366;28;20102;-74
2024/02/04 00:50:02;;;;;;;20.88;11.10;;;;;;;2.60;100.00;99254.38;5057409;28;20029;-73
2024/02/04 00:52:27;;;;;;;18.40;10.68;;;;;;;2.38;100.00;99260.41;5055553;28;20111;-73
2024/02/04 00:54:53;;;;;;;25.45;10.50;;;;;;;2.38;100.00;99270.41;5053277;28;20037;-72
2024/02/04 00:57:19;;;;;;;15.20;10.02;;;;;;;3.30;100.00;99382.63;5059164;28;20024;-73
2024/02/04 00:59:44;;;;;;;17.65;11.13;;;;;;;3.07;100.00;99384.47;5053736;28;20495;-74
2024/02/04 01:02:09;;;;;;;18.55;10.63;;;;;;;3.16;100.00;99391.13;5057897;28;20025;-73
2024/02/04 01:04:35;;;;;;;16.70;11.18;;;;;;;2.95;100.00;99399.63;5053185;28;20040;-73
2024/02/04 01:07:00;;;;;;;14.75;9.02;;;;;;;2.97;100.00;99414.69;5056637;28;20044;-73
2024/02/04 01:09:27;;;;;;;15.52;9.32;;;;;;;2.40;100.00;99270.41;5059397;28;20024;-74
2024/02/04 01:11:53;;;;;;;16.42;10.25;;;;;;;2.88;100.00;99350.34;5059118;28;20495;-73
2024/02/04 01:14:18;;;;;;;20.67;12.48;;;;;;;2.42;100.00;99264.53;5059284;28;20028;-77
2024/02/04 01:16:44;;;;;;;17.05;11.15;;;;;;;3.12;100.00;99334.25;5057011;28;20032;-73
2024/02/04 01:19:09;;;;;;;16.33;11.50;;;;;;;2.29;100.00;99229.53;5054873;28;20158;-73
2024/02/04 01:21:35;;;;;;;16.60;10.57;;;;;;;2.24;100.00;99207.00;5057524;28;20060;-74
2024/02/04 01:24:00;;;;;;;15.40;10.80;;;;;;;3.10;100.00;99336.78;5058655;28;20102;-72
2024/02/04 01:26:26;;;;;;;21.42;10.73;;;;;;;2.81;100.00;99358.75;5056606;28;20124;-72
2024/02/04 01:28:51;;;;;;;19.48;9.90;;;;;;;2.88;100.00;99320.22;5059823;28;20029;-71
2024/02/04 01:31:17;;;;;;;16.15;9.95;;;;;;;2.42;100.00;99214.41;5061060;28;20044;-72
2024/02/04 01:33:42;;;;;;;17.92;10.02;;;;;;;3.11;100.00;99310.00;5060435;28;20082;-72
2024/02/04 01:36:08;;;;;;;14.70;10.13;;;;;;;3.20;100.00;99277.25;5059971;28;20064;-72
2024/02/04 01:38:33;;;;;;;20.20;11.07;;;;;;;2.57;100.00;99186.69;5060940;28;20407;-72
2024/02/04 01:40:59;;;;;;;18.25;12.40;;;;;;;3.03;100.00;99301.69;5055879;28;20479;-73
2024/02/04 01:43:25;;;;;;;21.67;12.38;;;;;;;2.72;100.00;99303.63;5054537;28;20037;-72
2024/02/04 01:45:52;;;;;;;19.52;12.48;;;;;;;2.41;100.00;99327.25;5059134;28;20021;-75
2024/02/04 01:48:19;;;;;;;20.58;13.48;;;;;;;2.07;100.00;99200.44;5055552;28;20032;-73
2024/02/04 01:50:48;;;;;;;21.88;13.30;;;;;;;2.57;100.00;99374.81;5055982;28;20033;-73
2024/02/04 01:53:15;;;;;;;23.17;13.10;;;;;;;1.84;100.00;99259.91;5059214;28;20033;-72
2024/02/04 01:55:41;;;;;;;24.02;13.85;;;;;;;2.49;100.00;99315.50;5052242;28;20123;-72
2024/02/04 01:58:06;;;;;;;19.38;12.63;;;;;;;2.40;100.00;99308.00;5059881;28;20483;-72
2024/02/04 02:00:32;;;;;;;17.52;11.52;;;;;;;1.82;100.00;99229.84;5057105;28;20056;-72
2024/02/04 02:02:59;;;;;;;18.85;11.52;;;;;;;2.33;100.00;99262.13;5055274;28;20036;-73
2024/02/04 02:05:26;;;;;;;18.40;11.48;;;;;;;2.56;100.00;99262.78;5055303;28;20025;-71
2024/02/04 02:07:51;;;;;;;19.65;11.70;;;;;;;2.50;100.00;99279.53;5055865;28;20064;-72
2024/02/04 02:10:20;;;;;;;19.83;11.00;;;;;;;1.90;100.00;99137.94;5061844;28;20067;-71
2024/02/04 02:12:58;;;;;;;22.48;12.70;;;;;;;2.12;100.00;99258.91;5054948;28;20112;-72
2024/02/04 02:15:28;;;;;;;18.77;10.98;;;;;;;1.87;100.00;99204.75;5055943;28;20173;-73
2024/02/04 02:18:20;;;;;;;15.77;10.07;;;;;;;2.89;100.00;99256.66;5052326;28;20029;-72
2024/02/04 02:21:01;;;;;;;;;;;;;;;2.83;100.00;99281.81;5054071;28;20114;-72
2024/02/04 02:23:34;;;;;;;15.13;9.35;;;;;;;2.83;100.00;99266.75;5055891;28;19912;-73
2024/02/04 02:26:00;;;;;;;16.08;9.15;;;;;;;2.51;100.00;99141.59;5053597;28;20029;-73
2024/02/04 02:28:26;;;;;;;16.48;9.57;;;;;;;2.91;100.00;99284.25;5055260;28;20029;-73
2024/02/04 02:30:51;;;;;;;13.77;9.05;;;;;;;3.02;100.00;99287.47;5058357;28;20113;-73
2024/02/04 02:33:17;;;;;;;13.85;8.27;;;;;;;2.91;100.00;99281.72;5054482;28;20484;-72
2024/02/04 02:35:46;;;;;;;15.40;9.05;;;;;;;3.31;100.00;99245.31;5055261;28;20029;-72
2024/02/04 02:38:25;;;;;;;12.55;8.80;;;;;;;3.12;100.00;99261.44;5063877;28;20491;-73
2024/02/04 02:40:59;;;;;;;13.68;8.38;;;;;;;3.02;100.00;99205.47;5057225;28;20108;-72
2024/02/04 02:43:26;;;;;;;13.80;8.55;;;;;;;2.92;100.00;99193.03;5062335;28;20080;-74
2024/02/04 02:45:52;;;;;;;14.57;9.00;;;;;;;3.00;100.00;99256.53;5053384;28;20039;-72
2024/02/04 02:48:18;;;;;;;13.02;8.18;;;;;;;3.01;100.00;99241.44;5064235;28;20028;-73
2024/02/04 02:50:44;;;;;;;12.50;8.20;;;;;;;2.03;100.00;99182.09;5059511;28;20028;-72
2024/02/04 02:53:09;;;;;;;12.25;8.23;;;;;;;2.89;100.00;99309.34;5060843;28;20395;-72
2024/02/04 02:55:35;;;;;;;14.40;8.10;;;;;;;2.34;100.00;99140.06;5062926;28;20048;-73
2024/02/04 02:58:00;;;;;;;14.15;8.70;;;;;;;3.07;100.00;99263.19;5061392;28;20518;-73
2024/02/04 03:00:26;;;;;;;14.02;8.95;;;;;;;2.99;100.00;99220.56;5056216;28;20186;-73
2024/02/04 03:02:52;;;;;;;12.85;8.38;;;;;;;2.22;100.00;99168.59;5056206;28;20032;-73
2024/02/04 03:05:19;;;;;;;13.40;8.80;;;;;;;3.09;100.00;99356.88;5064652;28;20498;-73
2024/02/04 03:07:44;;;;;;;15.10;9.18;;;;;;;2.98;100.00;99300.91;5077097;28;20028;-73
2024/02/04 03:10:11;;;;;;;13.45;8.35;;;;;;;2.54;100.00;99298.72;5061289;28;20487;-72
2024/02/04 03:12:36;;;;;;;11.30;8.35;;;;;;;2.90;100.00;99316.03;5059122;28;20038;-73
2024/02/04 03:15:02;;;;;;;14.93;9.15;;;;;;;2.92;100.00;99359.50;5059097;28;20025;-72
2024/02/04 03:17:27;;;;;;;18.98;12.30;;;;;;;3.02;100.00;99390.38;5058674;28;20454;-73
2024/02/04 03:19:54;;;;;;;18.55;12.30;;;;;;;2.15;100.00;99227.13;5070139;28;20037;-73
2024/02/04 03:22:21;;;;;;;17.20;11.65;;;;;;;2.44;100.00;99393.25;5062860;28;20483;-73
2024/02/04 03:24:47;;;;;;;30.55;16.88;;;;;;;1.70;100.00;99255.75;5059997;28;20036;-73
2024/02/04 03:27:13;;;;;;;35.78;19.90;;;;;;;1.19;100.00;99358.53;5057307;28;20541;-72
2024/02/04 03:29:38;;;;;;;28.38;17.23;;;;;;;1.07;100.00;99367.75;5055937;28;20028;-72
2024/02/04 03:32:04;;;;;;;24.05;14.48;;;;;;;1.84;100.00;99408.53;5053957;28;20041;-73
2024/02/04 03:34:30;;;;;;;22.40;13.85;;;;;;;1.32;100.00;99379.41;5064710;28;20482;-73
2024/02/04 03:36:55;;;;;;;30.83;17.92;;;;;;;1.28;100.00;99382.75;5057758;28;20037;-72
2024/02/04 03:39:21;;;;;;;26.52;13.25;;;;;;;1.62;100.00;99431.97;5062901;28;20415;-73
2024/02/04 03:41:46;;;;;;;18.90;12.40;;;;;;;1.99;100.00;99423.53;5066636;28;20044;-73
2024/02/04 03:44:12;;;;;;;36.80;19.70;;;;;;;1.62;100.00;99455.31;5057012;28;20044;-73
2024/02/04 03:46:39;;;;;;;26.33;15.27;;;;;;;1.67;100.00;99448.66;5057341;28;20036;-73
2024/02/04 03:49:07;;;;;;;27.85;15.40;;;;;;;1.67;100.00;99480.34;5061263;28;20053;-73
2024/02/04 03:51:32;;;;;;;32.50;18.38;;;;;;;1.74;100.00;99440.28;5058291;28;20143;-73
2024/02/04 03:53:58;;;;;;;30.73;17.35;;;;;;;1.89;100.00;99424.38;5058312;28;20503;-76
2024/02/04 03:56:23;;;;;;;28.60;16.23;;;;;;;1.85;100.00;99386.81;5055725;28;20115;-73
2024/02/04 03:58:50;;;;;;;24.92;14.43;;;;;;;1.50;100.00;99371.88;5060306;28;20032;-72
2024/02/04 04:01:16;;;;;;;23.23;14.45;;;;;;;1.43;100.00;99381.06;5055080;28;20060;-73
2024/02/04 04:03:42;;;;;;;28.55;16.27;;;;;;;2.04;100.00;99441.06;5058426;28;20051;-73
2024/02/04 04:06:09;;;;;;;27.05;16.08;;;;;;;1.97;100.00;99459.44;5062692;28;20530;-72
2024/02/04 04:08:35;;;;;;;26.73;15.93;;;;;;;2.02;100.00;99473.63;5056067;28;20035;-73
2024/02/04 04:11:00;;;;;;;23.80;14.88;;;;;;;1.92;100.00;99453.63;5055520;28;20090;-72
2024/02/04 04:13:27;;;;;;;24.85;15.27;;;;;;;1.17;100.00;99342.69;5058756;28;20036;-72
2024/02/04 04:15:52;;;;;;;34.13;14.70;;;;;;;2.19;100.00;99458.56;5056614;28;20029;-70
2024/02/04 04:18:18;;;;;;;22.55;14.10;;;;;;;2.10;100.00;99446.06;5059963;28;20036;-73
2024/02/04 04:20:43;;;;;;;25.08;15.90;;;;;;;1.91;100.00;99464.47;5053576;28;20036;-72
2024/02/04 04:23:09;;;;;;;24.65;15.25;;;;;;;1.99;100.00;99451.09;5059033;28;20077;-74
2024/02/04 04:25:34;;;;;;;22.80;14.73;;;;;;;1.71;100.00;99410.22;5064147;28;20081;-75
2024/02/04 04:28:00;;;;;;;24.40;15.35;;;;;;;1.76;100.00;99487.88;5057278;28;20464;-72
2024/02/04 04:30:26;;;;;;;22.98;15.57;;;;;;;1.62;100.00;99500.38;5056858;28;20032;-72
2024/02/04 04:32:51;;;;;;;20.27;14.02;;;;;;;1.81;100.00;99502.88;5057892;28;20033;-71
2024/02/04 04:35:17;;;;;;;22.10;14.45;;;;;;;2.02;100.00;99527.94;5054969;28;20032;-74
2024/02/04 04:37:42;;;;;;;24.35;15.48;;;;;;;2.05;100.00;99586.41;5057262;28;20112;-71
2024/02/04 04:40:09;;;;;;;24.88;14.25;;;;;;;1.89;100.00;99526.28;5057078;28;20028;-71
2024/02/04 04:42:34;;;;;;;24.50;15.18;;;;;;;1.95;100.00;99508.72;5054233;28;20028;-72
2024/02/04 04:44:59;;;;;;;21.48;14.30;;;;;;;2.23;100.00;99508.69;5063601;28;20039;-71
2024/02/04 04:47:25;;;;;;;20.77;13.02;;;;;;;1.32;100.00;99407.78;5056502;28;20159;-73
2024/02/04 04:49:50;;;;;;;22.70;13.55;;;;;;;2.24;100.00;99612.31;5064844;28;20039;-72
2024/02/04 04:52:16;;;;;;;19.90;13.40;;;;;;;1.17;100.00;99410.25;5063310;28;20475;-73
2024/02/04 04:54:42;;;;;;;23.25;15.05;;;;;;;2.27;100.00;99527.06;5058639;28;20058;-72
2024/02/04 04:57:09;;;;;;;22.55;14.32;;;;;;;2.57;100.00;99525.31;5059928;28;20028;-72
2024/02/04 04:59:36;;;;;;;21.65;14.48;;;;;;;1.55;100.00;99436.13;5055483;28;20040;-72
2024/02/04 05:02:01;;;;;;;23.20;13.75;;;;;;;1.71;100.00;99435.28;5058679;28;20021;-72
2024/02/04 05:04:27;;;;;;;22.55;15.18;;;;;;;2.52;100.00;99511.09;5060486;28;20029;-75
2024/02/04 05:06:52;;;;;;;25.92;17.38;;;;;;;1.75;100.00;99459.50;5058824;28;20029;-72
2024/02/04 05:09:18;;;;;;;30.45;20.73;;;;;;;1.69;100.00;99478.69;5053565;28;20045;-72
2024/02/04 05:11:43;;;;;;;36.13;25.17;;;;;;;2.40;100.00;99588.88;5056387;28;20078;-73
2024/02/04 05:14:09;;;;;;;53.13;35.92;;;;;;;2.44;100.00;99634.00;5059955;28;20082;-71
2024/02/04 05:16:35;;;;;;;53.38;35.50;;;;;;;2.36;100.00;99555.44;5059897;28;20028;-74
2024/02/04 05:19:02;;;;;;;43.88;30.13;;;;;;;2.35;100.00;99575.50;5058495;28;20091;-72
2024/02/04 05:21:28;;;;;;;44.83;29.13;;;;;;;2.35;100.00;99648.22;5056806;28;20515;-76
2024/02/04 05:23:54;;;;;;;33.00;23.42;;;;;;;1.81;100.00;99528.78;5059958;28;20040;-73
2024/02/04 05:26:20;;;;;;;36.72;24.38;;;;;;;2.33;100.00;99675.81;5060669;28;20111;-72
2024/02/04 05:28:46;;;;;;;33.30;22.70;;;;;;;1.66;100.00;99503.75;5059103;28;20128;-73
2024/02/04 05:31:12;;;;;;;28.00;19.75;;;;;;;2.44;100.00;99648.22;5065414;28;20078;-72
2024/02/04 05:33:37;;;;;;;29.77;20.45;;;;;;;2.52;100.00;99715.09;5062485;28;20044;-72
2024/02/04 05:36:03;;;;;;;34.45;23.05;;;;;;;2.49;100.00;99691.69;5059982;28;20032;-71
2024/02/04 05:38:29;;;;;;;41.65;27.92;;;;;;;2.36;100.00;99765.25;5059554;28;20033;-72
2024/02/04 05:40:54;;;;;;;29.65;21.30;;;;;;;2.52;100.00;99731.81;5060308;28;20040;-72
2024/02/04 05:43:20;;;;;;;31.95;20.13;;;;;;;2.48;100.00;99743.53;5060163;28;20028;-71
2024/02/04 05:45:46;;;;;;;36.38;24.13;;;;;;;1.76;100.00;99696.63;5059085;28;20025;-72
2024/02/04 05:48:11;;;;;;;35.42;24.35;;;;;;;1.55;100.00;99704.06;5056479;28;20052;-72
2024/02/04 05:50:37;;;;;;;35.10;23.70;;;;;;;1.84;100.00;99728.38;5062690;28;20071;-74
2024/02/04 05:53:03;;;;;;;28.25;19.73;;;;;;;2.41;100.00;99823.78;5060239;28;20040;-72
2024/02/04 05:55:29;;;;;;;29.92;18.92;;;;;;;1.76;100.00;99741.72;5055835;28;20132;-72
2024/02/04 05:57:54;;;;;;;26.45;18.48;;;;;;;2.47;100.00;99826.31;5057139;28;20548;-73
2024/02/04 06:00:20;;;;;;;25.58;18.42;;;;;;;2.44;100.00;99828.78;5054319;28;20044;-72
2024/02/04 06:02:45;;;;;;;40.40;26.98;;;;;;;2.76;100.00;99861.44;5059080;28;20064;-73
2024/02/04 06:05:12;;;;;;;36.38;25.20;;;;;;;2.59;100.00;99808.75;5065067;28;20028;-73
2024/02/04 06:07:38;;;;;;;39.75;28.58;;;;;;;2.56;100.00;99853.91;5053822;28;20041;-73
2024/02/04 06:10:03;;;;;;;33.58;23.73;;;;;;;1.73;100.00;99681.59;5060329;28;20452;-73
2024/02/04 06:12:30;;;;;;;47.22;32.42;;;;;;;2.10;100.00;99740.13;5057378;28;20025;-72
2024/02/04 06:14:55;;;;;;;33.90;22.42;;;;;;;2.94;100.00;99809.59;5055722;28;20419;-74
2024/02/04 06:17:21;;;;;;;38.55;25.70;;;;;;;2.05;100.00;99613.13;5053585;28;20044;-71
2024/02/04 06:19:46;;;;;;;37.03;25.38;;;;;;;3.52;100.00;99732.47;5058120;28;20201;-72
2024/02/04 06:22:12;;;;;;;36.45;24.90;;;;;;;3.46;100.00;99708.22;5060945;28;20033;-74
2024/02/04 06:24:38;;;;;;;36.13;24.90;;;;;;;2.96;100.00;99629.72;5057112;28;20510;-71
2024/02/04 06:27:04;;;;;;;31.02;23.13;;;;;;;3.28;100.00;99712.47;5052162;28;20025;-70
2024/02/04 06:29:30;;;;;;;32.33;21.95;;;;;;;3.28;100.00;99725.03;5058619;28;20031;-71
2024/02/04 06:31:56;;;;;;;28.42;19.95;;;;;;;3.34;100.00;99737.56;5054278;28;20807;-74
2024/02/04 06:34:21;;;;;;;32.80;21.48;;;;;;;3.48;100.00;99760.97;5057474;28;20512;-72
2024/02/04 06:36:47;;;;;;;38.88;26.63;;;;;;;3.75;100.00;99778.44;5052997;28;20559;-74
2024/02/04 06:39:13;;;;;;;40.17;28.75;;;;;;;3.02;100.00;99689.94;5054697;28;20064;-72
2024/02/04 06:41:39;;;;;;;40.45;29.25;;;;;;;3.38;100.00;99744.25;5053712;28;20112;-76
2024/02/04 06:44:05;;;;;;;30.92;20.40;;;;;;;3.11;100.00;99734.28;5054760;28;20115;-74
2024/02/04 06:46:31;;;;;;;24.67;17.25;;;;;;;2.46;100.00;99611.44;5051621;28;20033;-75
2024/02/04 06:48:56;;;;;;;29.00;19.83;;;;;;;4.04;100.00;99763.25;5053054;28;20117;-76
2024/02/04 06:51:22;;;;;;;36.08;24.10;;;;;;;4.23;100.00;99764.81;5054953;28;20076;-74
2024/02/04 06:53:48;;;;;;;42.85;25.17;;;;;;;3.81;100.00;99710.56;5053008;28;20035;-74
2024/02/04 06:56:13;;;;;;;40.33;24.90;;;;;;;3.81;100.00;99677.03;5054813;28;20408;-76
2024/02/04 06:58:42;;;;;;;41.22;26.17;;;;;;;4.56;100.00;99774.63;5054236;28;20392;-75
2024/02/04 07:01:08;;;;;;;51.25;32.80;;;;;;;3.10;100.00;99575.28;5054031;28;20493;-75
2024/02/04 07:03:34;;;;;;;61.13;43.70;;;;;;;4.27;100.00;99836.91;5056854;28;20036;-74
2024/02/04 07:06:00;;;;;;;57.42;42.17;;;;;;;3.60;100.00;99679.69;5059177;28;20120;-75
2024/02/04 07:08:26;;;;;;;52.47;38.55;;;;;;;4.35;100.00;99799.94;5055530;28;20486;-75
2024/02/04 07:10:52;;;;;;;51.47;36.90;;;;;;;3.98;100.00;99806.84;5056089;28;20056;-75
2024/02/04 07:13:18;;;;;;;46.72;33.28;;;;;;;3.25;100.00;99581.88;5056215;28;20040;-75
2024/02/04 07:15:44;;;;;;;52.65;38.53;;;;;;;3.53;100.00;99714.03;5057233;28;20043;-73
2024/02/04 07:18:10;;;;;;;65.22;47.70;;;;;;;4.18;100.00;99824.38;5051512;28;20119;-71
2024/02/04 07:20:35;;;;;;;60.17;44.42;;;;;;;3.51;100.00;99750.91;5049528;28;20460;-75
2024/02/04 07:23:01;;;;;;;63.15;47.58;;;;;;;4.32;100.00;99833.50;5053050;28;20167;-74
2024/02/04 07:25:26;;;;;;;67.90;50.38;;;;;;;3.57;100.00;99743.34;5053621;28;20392;-74
2024/02/04 07:27:53;;;;;;;69.95;50.63;;;;;;;4.04;100.00;99868.88;5051662;28;20028;-74
2024/02/04 07:30:20;;;;;;;38.95;28.45;;;;;;;6.04;100.00;99747.94;5054791;28;20298;-75
2024/02/04 07:32:46;;;;;;;72.60;52.83;;;;;;;4.07;100.00;99859.63;5055060;28;20039;-74
2024/02/04 07:35:11;;;;;;;75.25;54.55;;;;;;;3.58;100.00;99822.91;5054457;28;20024;-75
2024/02/04 07:37:37;;;;;;;69.18;51.85;;;;;;;4.85;100.00;99958.25;5049421;28;20112;-74
2024/02/04 07:40:05;;;;;;;66.72;52.08;;;;;;;4.47;100.00;99987.78;5053181;28;20036;-74
2024/02/04 07:42:31;;;;;;;80.93;54.60;;;;;;;4.60;100.00;100033.03;5052035;28;20060;-74
2024/02/04 07:44:56;;;;;;;86.55;56.28;;;;;;;4.25;100.00;99887.22;5055275;28;20079;-75
2024/02/04 07:47:22;;;;;;;68.35;47.35;;;;;;;4.37;100.00;99954.25;5055819;28;20033;-74
2024/02/04 07:49:48;;;;;;;55.58;39.65;;;;;;;4.79;100.00;100029.63;5054703;28;20033;-72
2024/02/04 07:52:14;;;;;;;59.50;40.40;;;;;;;4.54;100.00;99984.38;5053484;28;20029;-72
2024/02/04 07:54:40;;;;;;;61.25;45.53;;;;;;;4.40;100.00;99965.13;5056415;28;20450;-73
2024/02/04 07:57:05;;;;;;;125.95;64.35;;;;;;;4.05;100.00;99935.91;5050899;28;20064;-75
2024/02/04 07:59:31;;;;;;;117.07;58.42;;;;;;;4.70;100.00;100044.75;5056788;28;20024;-75
2024/02/04 08:01:58;;;;;;;57.08;32.38;;;;;;;4.63;100.00;100097.63;5054763;28;20090;-73
2024/02/04 08:04:24;;;;;;;38.65;23.63;;;;;;;4.73;100.00;100085.03;5053416;28;20025;-73
2024/02/04 08:06:49;;;;;;;24.40;17.42;;;;;;;4.20;100.00;99981.97;5053236;28;20037;-72
2024/02/04 08:09:15;;;;;;;21.85;15.05;;;;;;;4.86;100.00;100073.22;5054269;28;20067;-73
2024/02/04 08:11:40;;;;;;;24.85;18.23;;;;;;;5.08;100.00;100055.50;5053016;28;20029;-74
2024/02/04 08:14:06;;;;;;;25.73;17.77;;;;;;;4.43;100.00;99929.06;5049300;28;20068;-70
2024/02/04 08:16:32;;;;;;;24.38;17.85;;;;;;;5.06;100.00;100047.13;5054499;28;20021;-72
2024/02/04 08:18:58;;;;;;;19.48;15.40;;;;;;;4.45;100.00;99966.81;5051741;28;20491;-72
2024/02/04 08:21:23;;;;;;;18.88;13.43;;;;;;;5.30;100.00;100083.94;5051781;28;20028;-71
2024/02/04 08:23:49;;;;;;;27.48;19.00;;;;;;;4.94;100.00;100037.09;5052804;28;20029;-71
2024/02/04 08:26:14;;;;;;;33.33;20.88;;;;;;;5.23;100.00;100047.00;5052701;28;20119;-71
2024/02/04 08:28:40;;;;;;;33.13;20.67;;;;;;;4.66;100.00;99991.88;5054673;28;20043;-71
2024/02/04 08:31:05;;;;;;;25.33;19.00;;;;;;;4.72;100.00;99989.34;5052120;28;20155;-71
2024/02/04 08:33:31;;;;;;;32.15;21.33;;;;;;;5.29;100.00;100098.22;5050308;28;20033;-71
2024/02/04 08:35:57;;;;;;;31.13;22.92;;;;;;;4.74;100.00;100010.31;5050374;28;20037;-71
2024/02/04 08:38:22;;;;;;;37.67;24.67;;;;;;;4.87;100.00;99997.66;5051598;28;20036;-70
2024/02/04 08:40:47;;;;;;;59.92;50.95;;;;;;;5.20;100.00;100093.25;5047492;28;20032;-70
2024/02/04 08:43:13;;;;;;;37.35;28.85;;;;;;;5.05;100.00;100047.13;5049100;28;20037;-70
2024/02/04 08:45:38;;;;;;;41.15;32.58;;;;;;;5.50;100.00;100146.84;5050748;28;20111;-69
2024/02/04 08:48:04;;;;;;;115.22;76.47;;;;;;;5.45;100.00;100167.03;5046749;28;20032;-70
2024/02/04 08:50:30;;;;;;;47.70;36.50;;;;;;;5.60;100.00;100164.47;5051900;28;20029;-70
2024/02/04 08:52:55;;;;;;;30.30;23.25;;;;;;;5.00;100.00;100044.63;5043328;28;20059;-70
2024/02/04 08:55:21;;;;;;;29.00;22.02;;;;;;;4.93;100.00;100042.97;5044922;28;20041;-72
2024/02/04 08:57:48;;;;;;;21.92;17.45;;;;;;;5.27;100.00;100064.63;5056088;28;20128;-75
2024/02/04 09:00:14;;;;;;;20.92;15.85;;;;;;;5.65;100.00;100169.47;5059888;28;20033;-70
2024/02/04 09:02:40;;;;;;;20.95;16.77;;;;;;;5.25;100.00;100031.03;5047281;28;20487;-69
2024/02/04 09:05:06;;;;;;;25.85;18.05;;;;;;;5.79;100.00;100137.44;5055214;28;20024;-70
2024/02/04 09:07:31;;;;;;;34.85;20.77;;;;;;;4.77;100.00;99934.78;5052870;28;20095;-70
2024/02/04 09:09:57;;;;;;;28.75;19.38;;;;;;;5.92;100.00;100136.56;5045391;28;20047;-73
2024/02/04 09:12:23;;;;;;;27.45;17.90;;;;;;;5.95;100.00;100147.47;5052812;28;20056;-70
2024/02/04 09:14:48;;;;;;;25.52;17.60;;;;;;;5.18;100.00;100026.91;5047930;28;20025;-72
2024/02/04 09:17:14;;;;;;;31.17;21.85;;;;;;;5.36;100.00;100051.16;5047381;28;20039;-72
2024/02/04 09:19:40;;;;;;;37.00;26.83;;;;;;;5.66;100.00;100123.25;5048277;28;20032;-69
2024/02/04 09:22:05;;;;;;;39.72;27.27;;;;;;;5.21;100.00;100031.06;5050293;28;20368;-71
2024/02/04 09:24:31;;;;;;;35.70;24.65;;;;;;;5.87;100.00;100139.09;5051479;28;20460;-68
2024/02/04 09:26:56;;;;;;;54.10;33.53;;;;;;;5.29;100.00;100006.66;5051299;28;20029;-69
2024/02/04 09:29:22;;;;;;;61.50;37.58;;;;;;;5.81;100.00;100143.31;5051703;28;20412;-71
2024/02/04 09:31:49;;;;;;;44.75;30.48;;;;;;;5.87;100.00;100133.22;5054328;28;20074;-73
2024/02/04 09:34:15;;;;;;;56.25;35.00;;;;;;;4.91;100.00;99963.25;5048847;28;20044;-70
2024/02/04 09:36:41;;;;;;;66.43;40.92;;;;;;;5.09;100.00;99960.63;5049898;28;20555;-70
2024/02/04 09:39:07;;;;;;;44.30;29.33;;;;;;;6.00;100.00;100125.56;5051777;28;20116;-72
2024/02/04 09:41:33;;;;;;;40.78;26.73;;;;;;;6.06;100.00;100109.56;5047793;28;20029;-70
2024/02/04 09:44:00;;;;;;;48.17;34.42;;;;;;;5.23;100.00;100007.53;5057161;28;20029;-72
2024/02/04 09:46:26;;;;;;;45.55;34.80;;;;;;;5.70;100.00;100051.78;5053448;28;20033;-70
2024/02/04 09:48:55;;;;;;;50.78;37.10;;;;;;;5.98;100.00;100099.50;5056782;28;20039;-71
2024/02/04 09:51:20;;;;;;;81.90;55.92;;;;;;;5.47;100.00;99981.34;5053387;28;20040;-72
2024/02/04 09:53:51;;;;;;;79.80;55.28;;;;;;;5.62;100.00;99981.22;5055804;28;20847;-71
2024/02/04 09:56:18;;;;;;;96.53;58.58;;;;;;;5.66;100.00;99992.97;5054834;28;20500;-72
2024/02/04 09:58:44;;;;;;;53.80;38.75;;;;;;;6.50;100.00;100094.00;5053216;28;20037;-69
2024/02/04 10:01:11;;;;;;;49.33;34.22;;;;;;;6.38;100.00;100057.06;5063003;28;20039;-72
2024/02/04 10:03:37;;;;;;;40.67;28.83;;;;;;;6.61;100.00;100100.63;5061491;28;20029;-69
2024/02/04 10:06:03;;;;;;;36.95;26.20;;;;;;;6.30;100.00;99936.88;5062748;28;20060;-70
2024/02/04 10:08:29;;;;;;;34.78;26.35;;;;;;;6.09;100.00;99969.06;5059874;28;20065;-69
2024/02/04 10:10:54;;;;;;;32.58;24.35;;;;;;;6.61;100.00;100017.28;5055499;28;20040;-69
2024/02/04 10:13:22;;;;;;;42.67;30.52;;;;;;;5.90;100.00;99982.66;5062599;28;20464;-70
2024/02/04 10:15:49;;;;;;;44.38;31.58;;;;;;;6.54;100.00;100008.09;5061448;28;20506;-71
2024/02/04 10:18:17;;;;;;;45.65;33.22;;;;;;;6.44;100.00;100068.84;5056185;28;20056;-69
2024/02/04 10:20:43;;;;;;;43.17;32.40;;;;;;;6.12;100.00;100011.06;5052882;28;20479;-68
2024/02/04 10:23:09;;;;;;;47.90;35.10;;;;;;;5.93;100.00;99982.66;5055214;28;20434;-69
2024/02/04 10:25:34;;;;;;;54.95;40.22;;;;;;;6.44;100.00;100087.31;5052555;28;20025;-69
2024/02/04 10:28:00;;;;;;;46.75;35.53;;;;;;;6.65;100.00;100000.41;5055140;28;20033;-67
2024/02/04 10:30:25;;;;;;;48.05;36.10;;;;;;;6.06;100.00;99990.97;5051298;28;20025;-70
2024/02/04 10:32:52;;;;;;;41.42;30.88;;;;;;;6.70;100.00;100061.78;5054290;28;20487;-72
2024/02/04 10:35:22;;;;;;;38.75;29.05;;;;;;;6.76;100.00;100024.69;5053306;28;20021;-68
2024/02/04 10:37:51;;;;;;;37.03;28.13;;;;;;;6.70;100.00;100029.78;5053703;28;20065;-69
2024/02/04 10:40:17;;;;;;;37.47;28.92;;;;;;;6.77;100.00;100066.75;5049100;28;20037;-71
2024/02/04 10:42:43;;;;;;;36.33;27.30;;;;;;;6.75;100.00;100101.34;5051952;28;20396;-70
2024/02/04 10:45:10;;;;;;;32.63;26.50;;;;;;;6.35;100.00;99946.06;5053985;28;20032;-69
2024/02/04 10:47:38;;;;;;;36.70;29.40;;;;;;;6.57;100.00;99997.97;5055462;28;20418;-70
2024/02/04 10:50:04;;;;;;;36.42;28.50;;;;;;;5.58;100.00;99868.66;5054262;28;20044;-69
2024/02/04 10:52:39;;;;;;;45.80;37.03;;;;;;;6.60;100.00;99977.72;5055025;28;20063;-70
2024/02/04 10:55:08;;;;;;;41.13;30.67;;;;;;;6.22;100.00;99928.53;5050684;28;20040;-69
2024/02/04 10:57:34;;;;;;;44.33;33.55;;;;;;;6.99;100.00;100042.91;5058155;28;20036;-70
2024/02/04 11:00:04;;;;;;;57.95;44.80;;;;;;;6.96;100.00;100027.78;5054045;28;20483;-71
2024/02/04 11:02:31;;;;;;;78.18;51.72;;;;;;;7.28;100.00;100055.19;5054544;28;20036;-70
2024/02/04 11:04:58;;;;;;;65.13;44.83;;;;;;;6.96;100.00;100050.53;5051762;28;20033;-68
2024/02/04 11:07:24;;;;;;;64.30;42.33;;;;;;;6.53;100.00;99943.31;5054203;28;20036;-70
2024/02/04 11:09:51;;;;;;;76.65;51.17;;;;;;;6.46;100.00;99918.97;5052653;28;20024;-69
2024/02/04 11:12:18;;;;;;;92.50;65.75;;;;;;;7.10;100.00;99966.13;5051338;28;20032;-69